createdAt,value
2022-12-11T16:42:22.598Z,38.64
2022-12-11T16:42:33.531Z,39.34
2022-12-11T16:42:43.534Z,38.94
2022-12-11T16:42:53.545Z,38.64
2022-12-11T16:43:03.528Z,38.64
2022-12-11T16:43:13.529Z,38.64
2022-12-11T16:43:23.524Z,38.64
2022-12-11T16:43:33.519Z,38.64
2022-12-11T16:43:43.520Z,38.54
2022-12-11T16:43:53.513Z,38.54
2022-12-11T16:44:03.518Z,38.64
2022-12-11T16:44:13.510Z,38.64
2022-12-11T16:44:23.511Z,38.64
2022-12-11T16:44:33.509Z,38.64
2022-12-11T16:44:44.287Z,38.64
2022-12-11T16:44:53.511Z,38.64
2022-12-11T16:45:03.504Z,38.54
2022-12-11T16:45:13.824Z,38.54
2022-12-11T16:45:23.507Z,38.54
2022-12-11T16:45:33.521Z,38.54
2022-12-11T16:45:43.494Z,38.54
2022-12-11T16:45:53.568Z,38.54
2022-12-11T16:46:03.609Z,38.54
2022-12-11T16:46:13.538Z,38.54
2022-12-11T16:46:23.558Z,38.52
2022-12-11T16:46:33.596Z,38.54
2022-12-11T16:46:43.531Z,38.54
2022-12-11T16:46:53.504Z,38.54
2022-12-11T16:47:22.017Z,38.64
2022-12-11T16:47:26.629Z,38.64
2022-12-11T16:47:31.223Z,38.64
2022-12-11T16:47:35.828Z,38.64
2022-12-11T16:47:40.431Z,38.64
2022-12-11T16:47:45.032Z,38.64
2022-12-11T16:47:49.656Z,38.64
2022-12-11T16:47:54.262Z,38.64
2022-12-11T16:47:58.868Z,38.64
2022-12-11T16:48:03.467Z,38.64
2022-12-11T16:48:12.608Z,38.54
2022-12-11T16:48:26.329Z,38.54
2022-12-11T16:48:35.494Z,38.54
2022-12-11T16:48:44.658Z,38.54
2022-12-11T16:48:53.808Z,38.54
2022-12-11T16:49:02.956Z,38.54
2022-12-11T16:49:12.090Z,38.54
2022-12-11T16:49:25.821Z,38.54
2022-12-11T16:49:34.965Z,38.54
2022-12-11T16:49:44.093Z,38.54
2022-12-11T16:49:53.231Z,38.44
2022-12-11T16:50:02.385Z,38.44
2022-12-11T16:50:16.110Z,38.44
2022-12-11T16:50:25.274Z,38.44
2022-12-11T16:50:34.454Z,38.44
2022-12-11T16:50:43.610Z,38.54
2022-12-11T16:50:52.765Z,38.54
2022-12-11T16:51:06.497Z,38.44
2022-12-11T16:51:15.724Z,38.44
2022-12-11T16:51:24.878Z,38.44
2022-12-11T16:51:34.072Z,38.54
2022-12-11T16:51:43.218Z,38.54
2022-12-11T16:51:52.363Z,38.54
2022-12-11T16:52:06.066Z,38.54
2022-12-11T16:52:19.040Z,38.54
2022-12-11T16:52:26.424Z,38.54
2022-12-11T16:52:35.582Z,38.54
2022-12-11T16:52:44.745Z,38.54
2022-12-11T16:52:53.902Z,38.54
2022-12-11T16:53:03.050Z,38.44
2022-12-11T16:53:12.209Z,38.54
2022-12-11T16:53:25.957Z,38.54
2022-12-11T16:53:35.107Z,38.44
2022-12-11T16:53:44.265Z,38.44
2022-12-11T16:53:53.423Z,38.44
2022-12-11T16:54:02.582Z,38.44
2022-12-11T16:54:16.292Z,38.44
2022-12-11T16:54:25.445Z,38.44
2022-12-11T16:54:34.606Z,38.44
2022-12-11T16:54:43.778Z,38.44
2022-12-11T16:54:52.931Z,38.44
2022-12-11T16:55:34.489Z,38.54
2022-12-11T16:55:39.113Z,38.44
2022-12-11T16:55:43.743Z,38.54
2022-12-11T16:55:48.350Z,38.54
2022-12-11T16:55:52.978Z,38.44
2022-12-11T16:55:57.614Z,38.44
2022-12-11T16:56:02.250Z,38.44
2022-12-11T16:56:16.072Z,38.54
2022-12-11T16:56:25.296Z,38.64
2022-12-11T16:56:34.529Z,38.64
2022-12-11T16:56:43.761Z,38.62
2022-12-11T16:56:52.972Z,38.62
2022-12-11T16:57:02.183Z,38.62
2022-12-11T16:57:15.969Z,38.64
2022-12-11T16:57:25.202Z,38.64
2022-12-11T16:57:34.442Z,38.52
2022-12-11T16:57:43.662Z,38.52
2022-12-11T16:57:52.879Z,38.62
2022-12-11T16:58:02.114Z,38.62
2022-12-11T16:58:15.928Z,39.74
2022-12-11T16:58:25.150Z,41.11
2022-12-11T16:58:34.356Z,40.01
2022-12-11T16:58:43.567Z,39.22
2022-12-11T16:58:52.773Z,38.82
2022-12-11T16:59:02.201Z,38.52
2022-12-11T16:59:16.013Z,38.32
2022-12-11T16:59:35.172Z,38.22
2022-12-11T17:00:24.535Z,38.22
2022-12-11T17:00:29.142Z,38.22
2022-12-11T17:00:33.751Z,38.22
2022-12-11T17:00:38.363Z,38.22
2022-12-11T17:00:42.975Z,38.22
2022-12-11T17:00:47.585Z,38.22
2022-12-11T17:00:52.202Z,38.22
2022-12-11T17:00:56.831Z,38.22
2022-12-11T17:01:01.658Z,38.12
2022-12-11T17:01:06.441Z,38.12
2022-12-11T17:01:15.752Z,38.12
2022-12-11T17:01:25.074Z,38.02
2022-12-11T17:01:38.887Z,38.12
2022-12-11T17:01:48.092Z,38.12
2022-12-11T17:01:57.389Z,38.02
2022-12-11T17:02:06.637Z,38.00
2022-12-11T17:02:15.798Z,38.02
2022-12-11T17:02:25.038Z,38.12
2022-12-11T17:02:38.935Z,38.12
2022-12-11T17:02:48.309Z,38.02
2022-12-11T17:02:57.548Z,38.12
2022-12-11T17:03:06.785Z,38.10
2022-12-11T17:03:15.979Z,38.12
2022-12-11T17:03:25.161Z,38.12
2022-12-11T17:03:38.917Z,38.12
2022-12-11T17:03:48.087Z,38.12
2022-12-11T17:03:57.266Z,38.12
2022-12-11T17:04:06.494Z,38.12
2022-12-11T17:04:15.674Z,38.12
2022-12-11T17:04:24.858Z,38.12
2022-12-11T17:04:38.615Z,38.12
2022-12-11T17:04:53.550Z,38.12
2022-12-11T17:04:58.454Z,38.12
2022-12-11T17:05:07.660Z,38.12
2022-12-11T17:05:16.842Z,38.12
2022-12-11T17:05:26.020Z,38.12
2022-12-11T17:05:35.199Z,38.12
2022-12-11T17:05:48.939Z,38.12
2022-12-11T17:05:58.116Z,38.22
2022-12-11T17:06:07.293Z,38.22
2022-12-11T17:06:16.479Z,38.22
2022-12-11T17:06:25.662Z,38.22
2022-12-11T17:06:34.848Z,38.22
2022-12-11T17:06:48.587Z,38.32
2022-12-11T17:06:57.751Z,38.22
2022-12-11T17:07:06.933Z,38.32
2022-12-11T17:07:16.119Z,38.32
2022-12-11T17:07:25.307Z,38.42
2022-12-11T17:07:39.075Z,38.42
2022-12-11T17:07:48.362Z,38.42
2022-12-11T17:07:57.611Z,38.42
2022-12-11T17:08:06.822Z,38.42
2022-12-11T17:08:16.118Z,38.42
2022-12-11T17:08:25.355Z,38.32
2022-12-11T17:08:34.602Z,38.32
2022-12-11T17:08:48.354Z,38.52
2022-12-11T17:08:57.537Z,38.64
2022-12-11T17:09:06.709Z,38.64
2022-12-11T17:09:15.885Z,38.64
2022-12-11T17:09:25.067Z,38.64
2022-12-11T17:09:38.816Z,38.64
2022-12-11T17:09:48.000Z,38.64
2022-12-11T17:09:57.178Z,38.74
2022-12-11T17:10:06.374Z,38.85
2022-12-11T17:10:15.555Z,38.85
2022-12-11T17:10:24.731Z,38.96
2022-12-11T17:10:38.496Z,39.06
2022-12-11T17:10:47.690Z,39.15
2022-12-11T17:10:56.872Z,39.15
2022-12-11T17:11:06.071Z,39.28
2022-12-11T17:11:15.264Z,39.37
2022-12-11T17:11:29.017Z,39.37
2022-12-11T17:11:38.201Z,39.48
2022-12-11T17:11:47.378Z,39.48
2022-12-11T17:11:56.565Z,39.58
2022-12-11T17:12:05.758Z,39.67
2022-12-11T17:12:14.941Z,39.69
2022-12-11T17:12:28.713Z,39.79
2022-12-11T17:12:37.915Z,39.79
2022-12-11T17:12:47.105Z,39.89
2022-12-11T17:12:56.300Z,39.89
2022-12-11T17:13:05.505Z,39.89
2022-12-11T17:13:14.682Z,40.00
2022-12-11T17:13:31.721Z,40.09
2022-12-11T17:13:40.290Z,40.11
2022-12-11T17:13:44.902Z,40.11
2022-12-11T17:13:58.662Z,40.22
2022-12-11T17:14:07.842Z,40.31
2022-12-11T17:14:17.021Z,40.31
2022-12-11T17:14:26.206Z,40.31
2022-12-11T17:14:35.521Z,40.31
2022-12-11T17:14:44.682Z,40.41
2022-12-11T17:14:58.432Z,40.52
2022-12-11T17:15:07.620Z,40.52
2022-12-11T17:15:16.803Z,40.63
2022-12-11T17:15:25.987Z,40.63
2022-12-11T17:15:35.251Z,40.73
2022-12-11T17:15:49.055Z,40.73
2022-12-11T17:15:58.357Z,40.83
2022-12-11T17:16:07.606Z,40.83
2022-12-11T17:16:16.923Z,40.93
2022-12-11T17:16:26.124Z,40.93
2022-12-11T17:16:35.333Z,41.05
2022-12-11T17:16:49.099Z,41.15
2022-12-11T17:16:58.279Z,41.15
2022-12-11T17:17:07.481Z,41.15
2022-12-11T17:17:16.678Z,41.25
2022-12-11T17:17:25.860Z,41.25
2022-12-11T17:17:35.041Z,41.35
2022-12-11T17:17:48.832Z,41.35
2022-12-11T17:17:58.015Z,41.46
2022-12-11T17:18:07.228Z,41.46
2022-12-11T17:18:16.412Z,41.46
2022-12-11T17:18:25.593Z,41.55
2022-12-11T17:18:34.785Z,41.55
2022-12-11T17:18:48.528Z,41.67
2022-12-11T17:18:57.715Z,41.67
2022-12-11T17:19:06.898Z,41.77
2022-12-11T17:19:16.621Z,41.77
2022-12-11T17:19:25.797Z,41.77
2022-12-11T17:19:34.973Z,41.88
2022-12-11T17:19:48.732Z,41.88
2022-12-11T17:19:58.014Z,41.88
2022-12-11T17:20:07.207Z,41.97
2022-12-11T17:20:16.385Z,41.97
2022-12-11T17:20:25.564Z,42.07
2022-12-11T17:20:34.754Z,42.07
2022-12-11T17:20:48.596Z,42.07
2022-12-11T17:20:57.772Z,42.07
2022-12-11T17:21:06.991Z,42.19
2022-12-11T17:21:16.174Z,42.19
2022-12-11T17:21:25.375Z,42.30
2022-12-11T17:21:34.568Z,42.30
2022-12-11T17:21:51.395Z,42.40
2022-12-11T17:21:56.451Z,42.30
2022-12-11T17:22:05.638Z,42.40
2022-12-11T17:22:14.826Z,42.40
2022-12-11T17:22:28.576Z,42.49
2022-12-11T17:22:37.765Z,42.49
2022-12-11T17:22:46.961Z,42.49
2022-12-11T17:22:56.145Z,42.49
2022-12-11T17:23:05.354Z,42.60
2022-12-11T17:23:19.097Z,42.60
2022-12-11T17:23:28.287Z,42.60
2022-12-11T17:23:37.466Z,42.60
2022-12-11T17:23:46.654Z,42.69
2022-12-11T17:23:55.852Z,42.69
2022-12-11T17:24:05.033Z,42.72
2022-12-11T17:24:18.800Z,42.72
2022-12-11T17:24:27.975Z,42.82
2022-12-11T17:24:37.155Z,42.82
2022-12-11T17:24:46.340Z,42.82
2022-12-11T17:24:55.520Z,42.82
2022-12-11T17:25:04.701Z,42.91
2022-12-11T17:25:18.446Z,42.91
2022-12-11T17:25:27.623Z,42.91
2022-12-11T17:25:36.820Z,42.91
2022-12-11T17:25:45.999Z,43.02
2022-12-11T17:25:55.175Z,43.02
2022-12-11T17:26:08.918Z,43.02
2022-12-11T17:26:18.096Z,43.02
2022-12-11T17:26:27.290Z,43.12
2022-12-11T17:26:36.496Z,43.12
2022-12-11T17:26:45.675Z,43.12
2022-12-11T17:26:54.856Z,43.12
2022-12-11T17:27:08.629Z,43.22
2022-12-11T17:27:17.815Z,43.22
2022-12-11T17:27:26.997Z,43.22
2022-12-11T17:27:36.171Z,43.22
2022-12-11T17:27:45.376Z,43.22
2022-12-11T17:27:54.549Z,43.22
2022-12-11T17:28:08.307Z,43.34
2022-12-11T17:28:17.486Z,43.34
2022-12-11T17:28:26.662Z,43.34
2022-12-11T17:28:35.866Z,43.34
2022-12-11T17:28:45.034Z,43.34
2022-12-11T17:28:58.804Z,43.44
2022-12-11T17:29:07.997Z,43.44
2022-12-11T17:29:17.191Z,43.44
2022-12-11T17:29:26.379Z,43.44
2022-12-11T17:29:35.574Z,43.44
2022-12-11T17:29:44.761Z,43.44
2022-12-11T17:29:58.514Z,43.44
2022-12-11T17:30:07.733Z,43.54
2022-12-11T17:30:16.918Z,43.54
2022-12-11T17:30:26.102Z,43.54
2022-12-11T17:30:35.351Z,43.54
2022-12-11T17:30:44.638Z,43.54
2022-12-11T17:30:58.457Z,43.54
2022-12-11T17:31:07.710Z,43.64
2022-12-11T17:31:16.928Z,43.64
2022-12-11T17:31:26.122Z,43.64
2022-12-11T17:31:35.357Z,43.64
2022-12-11T17:31:44.553Z,43.64
2022-12-11T17:31:58.357Z,43.64
2022-12-11T17:32:07.537Z,43.64
2022-12-11T17:32:16.718Z,43.64
2022-12-11T17:32:25.902Z,43.64
2022-12-11T17:32:35.078Z,43.74
2022-12-11T17:32:48.853Z,43.74
2022-12-11T17:32:58.018Z,43.74
2022-12-11T17:33:07.211Z,43.74
2022-12-11T17:33:16.394Z,43.74
2022-12-11T17:33:25.578Z,43.74
2022-12-11T17:33:34.757Z,43.74
2022-12-11T17:33:48.513Z,43.84
2022-12-11T17:33:57.690Z,43.84
2022-12-11T17:34:06.869Z,43.84
2022-12-11T17:34:16.052Z,43.84
2022-12-11T17:34:25.241Z,43.84
2022-12-11T17:34:38.984Z,43.84
2022-12-11T17:34:48.168Z,43.84
2022-12-11T17:34:57.344Z,43.84
2022-12-11T17:35:06.608Z,43.94
2022-12-11T17:35:15.787Z,43.96
2022-12-11T17:35:24.968Z,43.96
2022-12-11T17:35:38.727Z,43.96
2022-12-11T17:35:47.904Z,43.94
2022-12-11T17:35:57.083Z,43.96
2022-12-11T17:36:06.281Z,43.96
2022-12-11T17:36:15.474Z,43.96
2022-12-11T17:36:24.667Z,43.96
2022-12-11T17:36:38.425Z,44.06
2022-12-11T17:36:47.600Z,44.06
2022-12-11T17:36:56.796Z,44.06
2022-12-11T17:37:06.007Z,44.06
2022-12-11T17:37:15.166Z,44.06
2022-12-11T17:37:28.926Z,44.16
2022-12-11T17:37:38.095Z,44.16
2022-12-11T17:37:47.275Z,44.16
2022-12-11T17:37:56.493Z,44.16
2022-12-11T17:38:05.673Z,44.16
2022-12-11T17:38:14.860Z,44.16
2022-12-11T17:38:28.619Z,44.16
2022-12-11T17:38:37.798Z,44.26
2022-12-11T17:38:46.979Z,44.26
2022-12-11T17:38:56.215Z,44.16
2022-12-11T17:39:05.442Z,44.26
2022-12-11T17:39:14.671Z,44.26
2022-12-11T17:39:28.424Z,44.26
2022-12-11T17:39:37.605Z,44.26
2022-12-11T17:39:46.812Z,44.26
2022-12-11T17:39:56.065Z,44.26
2022-12-11T17:40:05.302Z,44.26
2022-12-11T17:40:19.037Z,44.26
2022-12-11T17:40:28.219Z,44.36
2022-12-11T17:40:37.407Z,44.36
2022-12-11T17:40:46.585Z,44.36
2022-12-11T17:40:55.765Z,44.36
2022-12-11T17:41:04.950Z,44.36
2022-12-11T17:41:20.893Z,44.36
2022-12-11T17:41:25.708Z,44.36
2022-12-11T17:41:34.892Z,44.36
2022-12-11T17:41:48.648Z,44.36
2022-12-11T17:41:57.826Z,44.36
2022-12-11T17:42:07.009Z,44.36
2022-12-11T17:42:16.191Z,44.36
2022-12-11T17:42:25.374Z,44.46
2022-12-11T17:42:34.578Z,44.46
2022-12-11T17:42:48.339Z,44.46
2022-12-11T17:42:57.544Z,44.46
2022-12-11T17:43:06.724Z,44.46
2022-12-11T17:43:15.904Z,44.46
2022-12-11T17:43:25.087Z,44.46
2022-12-11T17:43:38.832Z,44.46
2022-12-11T17:43:48.025Z,44.56
2022-12-11T17:43:57.208Z,44.56
2022-12-11T17:44:06.388Z,44.56
2022-12-11T17:44:15.566Z,44.56
2022-12-11T17:44:24.754Z,44.56
2022-12-11T17:44:38.527Z,44.56
2022-12-11T17:44:47.704Z,44.56
2022-12-11T17:44:56.887Z,44.56
2022-12-11T17:45:06.066Z,44.56
2022-12-11T17:45:15.247Z,44.56
2022-12-11T17:45:28.989Z,44.56
2022-12-11T17:45:38.162Z,44.56
2022-12-11T17:45:47.332Z,44.56
2022-12-11T17:45:56.547Z,44.56
2022-12-11T17:46:05.757Z,44.56
2022-12-11T17:46:15.023Z,44.56
2022-12-11T17:46:28.825Z,44.56
2022-12-11T17:46:38.062Z,44.56
2022-12-11T17:46:47.225Z,44.67
2022-12-11T17:46:56.404Z,44.59
2022-12-11T17:47:10.880Z,44.67
2022-12-11T17:47:15.807Z,44.56
2022-12-11T17:47:25.003Z,44.67
2022-12-11T17:47:38.763Z,44.68
2022-12-11T17:47:47.943Z,44.68
2022-12-11T17:47:57.155Z,44.67
2022-12-11T17:48:06.341Z,44.68
2022-12-11T17:48:15.523Z,44.68
2022-12-11T17:48:24.703Z,44.68
2022-12-11T17:48:38.470Z,44.68
2022-12-11T17:48:47.640Z,44.67
2022-12-11T17:48:56.833Z,44.67
2022-12-11T17:49:06.021Z,44.67
2022-12-11T17:49:15.220Z,44.67
2022-12-11T17:49:28.960Z,44.67
2022-12-11T17:49:38.137Z,44.79
2022-12-11T17:49:47.318Z,44.79
2022-12-11T17:49:56.506Z,44.76
2022-12-11T17:50:05.688Z,44.79
2022-12-11T17:50:14.868Z,44.79
2022-12-11T17:50:28.645Z,44.79
2022-12-11T17:50:37.818Z,44.76
2022-12-11T17:50:47.010Z,44.79
2022-12-11T17:50:56.180Z,44.79
2022-12-11T17:51:05.412Z,44.79
2022-12-11T17:51:14.596Z,44.79
2022-12-11T17:51:28.354Z,44.79
2022-12-11T17:51:37.539Z,44.89
2022-12-11T17:51:46.722Z,44.89
2022-12-11T17:51:55.901Z,44.79
2022-12-11T17:52:05.119Z,44.89
2022-12-11T17:52:18.870Z,44.89
2022-12-11T17:52:33.754Z,44.89
2022-12-11T17:52:44.044Z,44.89
2022-12-11T17:52:48.926Z,44.89
2022-12-11T17:52:58.125Z,44.89
2022-12-11T17:53:07.295Z,44.89
2022-12-11T17:53:16.491Z,44.89
2022-12-11T17:53:25.671Z,44.79
2022-12-11T17:53:34.851Z,44.89
2022-12-11T17:53:48.596Z,44.89
2022-12-11T17:53:57.788Z,44.89
2022-12-11T17:54:06.984Z,44.79
2022-12-11T17:54:16.165Z,44.89
2022-12-11T17:54:25.342Z,44.79
2022-12-11T17:54:39.098Z,44.89
2022-12-11T17:54:48.275Z,44.89
2022-12-11T17:54:57.463Z,44.89
2022-12-11T17:55:06.649Z,44.89
2022-12-11T17:55:16.277Z,44.89
2022-12-11T17:55:25.608Z,44.99
2022-12-11T17:55:34.845Z,44.99
2022-12-11T17:55:48.647Z,44.99
2022-12-11T17:55:57.932Z,44.99
2022-12-11T17:56:07.122Z,44.99
2022-12-11T17:56:16.313Z,44.89
2022-12-11T17:56:25.494Z,44.99
2022-12-11T17:56:34.680Z,44.99
2022-12-11T17:56:48.442Z,44.99
2022-12-11T17:56:57.658Z,44.99
2022-12-11T17:57:06.831Z,44.99
2022-12-11T17:57:16.017Z,44.99
2022-12-11T17:57:25.209Z,44.99
2022-12-11T17:57:39.014Z,44.99
2022-12-11T17:57:48.195Z,44.99
2022-12-11T17:57:57.373Z,44.99
2022-12-11T17:58:06.648Z,44.99
2022-12-11T17:58:15.852Z,44.99
2022-12-11T17:58:25.032Z,44.99
2022-12-11T17:58:38.800Z,44.99
2022-12-11T17:58:47.991Z,45.09
2022-12-11T17:58:57.172Z,45.09
2022-12-11T17:59:06.353Z,45.09
2022-12-11T17:59:15.536Z,45.18
2022-12-11T17:59:24.732Z,45.09
2022-12-11T17:59:38.486Z,45.18
2022-12-11T17:59:47.674Z,45.09
2022-12-11T17:59:56.921Z,45.09
2022-12-11T18:00:06.113Z,45.09
2022-12-11T18:00:15.296Z,45.18
2022-12-11T18:00:33.219Z,45.09
2022-12-11T18:00:38.124Z,45.18
2022-12-11T18:00:47.314Z,45.18
2022-12-11T18:00:56.503Z,45.18
2022-12-11T18:01:05.682Z,45.09
2022-12-11T18:01:15.002Z,45.09
2022-12-11T18:01:28.838Z,45.09
2022-12-11T18:01:38.094Z,45.09
2022-12-11T18:01:47.281Z,45.09
2022-12-11T18:01:56.505Z,45.09
2022-12-11T18:02:05.766Z,45.09
2022-12-11T18:02:15.036Z,45.09
2022-12-11T18:02:28.817Z,45.09
2022-12-11T18:02:38.002Z,45.09
2022-12-11T18:02:47.193Z,45.09
2022-12-11T18:02:56.380Z,45.09
2022-12-11T18:03:05.575Z,45.09
2022-12-11T18:03:14.797Z,45.09
2022-12-11T18:03:28.630Z,45.09
2022-12-11T18:03:37.906Z,45.18
2022-12-11T18:03:47.254Z,45.18
2022-12-11T18:03:56.470Z,45.09
2022-12-11T18:04:05.685Z,45.18
2022-12-11T18:04:14.890Z,45.09
2022-12-11T18:04:28.636Z,45.18
2022-12-11T18:04:37.816Z,45.09
2022-12-11T18:04:46.997Z,45.09
2022-12-11T18:04:56.225Z,45.18
2022-12-11T18:05:05.407Z,45.09
2022-12-11T18:05:14.809Z,45.18
2022-12-11T18:05:28.587Z,45.18
2022-12-11T18:05:37.784Z,45.18
2022-12-11T18:05:46.965Z,45.18
2022-12-11T18:05:56.144Z,45.18
2022-12-11T18:06:05.428Z,45.18
2022-12-11T18:06:14.610Z,45.18
2022-12-11T18:06:28.354Z,45.18
2022-12-11T18:06:37.545Z,45.18
2022-12-11T18:06:46.727Z,45.18
2022-12-11T18:06:55.891Z,45.18
2022-12-11T18:07:05.083Z,45.18
2022-12-11T18:07:18.839Z,45.18
2022-12-11T18:07:28.017Z,45.18
2022-12-11T18:07:37.218Z,45.18
2022-12-11T18:07:46.459Z,45.18
2022-12-11T18:07:57.899Z,45.18
2022-12-11T18:08:07.504Z,45.18
2022-12-11T18:08:16.773Z,45.18
2022-12-11T18:08:26.054Z,45.29
2022-12-11T18:08:35.396Z,45.18
2022-12-11T18:08:44.669Z,45.18
2022-12-11T18:08:58.384Z,45.29
2022-12-11T18:09:07.567Z,45.18
2022-12-11T18:09:16.744Z,45.18
2022-12-11T18:09:25.938Z,45.18
2022-12-11T18:09:35.110Z,45.18
2022-12-11T18:09:48.850Z,45.18
2022-12-11T18:09:58.033Z,45.29
2022-12-11T18:10:07.213Z,45.29
2022-12-11T18:10:16.395Z,45.39
2022-12-11T18:10:25.574Z,45.39
2022-12-11T18:10:34.757Z,45.59
2022-12-11T18:10:48.526Z,45.39
2022-12-11T18:10:57.707Z,45.39
2022-12-11T18:11:06.894Z,45.39
2022-12-11T18:11:16.077Z,45.29
2022-12-11T18:11:25.260Z,45.18
2022-12-11T18:11:39.008Z,45.18
2022-12-11T18:11:48.249Z,45.17
2022-12-11T18:11:57.430Z,45.17
2022-12-11T18:12:06.721Z,45.18
2022-12-11T18:12:15.897Z,45.06
2022-12-11T18:12:25.081Z,45.06
2022-12-11T18:12:38.821Z,45.06
2022-12-11T18:12:48.015Z,45.06
2022-12-11T18:12:57.200Z,45.06
2022-12-11T18:13:06.392Z,45.06
2022-12-11T18:13:15.595Z,45.06
2022-12-11T18:13:24.771Z,45.06
2022-12-11T18:13:38.532Z,45.06
2022-12-11T18:13:47.694Z,45.06
2022-12-11T18:13:56.884Z,45.06
2022-12-11T18:14:06.075Z,45.06
2022-12-11T18:14:17.341Z,45.06
2022-12-11T18:14:26.839Z,45.06
2022-12-11T18:14:36.035Z,45.06
2022-12-11T18:14:45.235Z,44.96
2022-12-11T18:14:59.006Z,44.96
2022-12-11T18:15:08.199Z,44.96
2022-12-11T18:15:17.375Z,44.96
2022-12-11T18:15:26.552Z,44.96
2022-12-11T18:15:35.742Z,44.96
2022-12-11T18:15:44.961Z,44.96
2022-12-11T18:15:58.737Z,44.87
2022-12-11T18:16:08.003Z,44.87
2022-12-11T18:16:17.247Z,44.87
2022-12-11T18:16:26.601Z,44.87
2022-12-11T18:16:35.874Z,44.87
2022-12-11T18:16:45.093Z,44.87
2022-12-11T18:16:58.846Z,44.76
2022-12-11T18:17:08.024Z,44.76
2022-12-11T18:17:17.203Z,44.76
2022-12-11T18:17:26.380Z,44.74
2022-12-11T18:17:35.575Z,44.74
2022-12-11T18:17:44.755Z,44.74
2022-12-11T18:17:58.510Z,44.74
2022-12-11T18:18:07.691Z,44.64
2022-12-11T18:18:16.903Z,44.64
2022-12-11T18:18:26.087Z,44.64
2022-12-11T18:18:35.298Z,44.64
2022-12-11T18:18:49.036Z,44.64
2022-12-11T18:18:58.229Z,44.64
2022-12-11T18:19:07.413Z,44.64
2022-12-11T18:19:16.604Z,44.64
2022-12-11T18:19:25.781Z,44.64
2022-12-11T18:19:34.963Z,44.64
2022-12-11T18:19:48.707Z,44.54
2022-12-11T18:19:57.904Z,44.54
2022-12-11T18:20:07.092Z,44.54
2022-12-11T18:20:16.285Z,44.54
2022-12-11T18:20:25.492Z,44.54
2022-12-11T18:20:34.670Z,44.54
2022-12-11T18:20:48.450Z,44.54
2022-12-11T18:20:57.629Z,44.44
2022-12-11T18:21:06.834Z,44.44
2022-12-11T18:21:15.990Z,44.44
2022-12-11T18:21:25.169Z,44.44
2022-12-11T18:21:38.937Z,44.44
2022-12-11T18:21:48.127Z,44.44
2022-12-11T18:21:57.293Z,44.44
2022-12-11T18:22:06.530Z,44.44
2022-12-11T18:22:15.712Z,44.44
2022-12-11T18:22:24.886Z,44.54
2022-12-11T18:22:38.637Z,44.44
2022-12-11T18:22:47.839Z,44.44
2022-12-11T18:22:57.019Z,44.44
2022-12-11T18:23:06.201Z,44.44
2022-12-11T18:23:15.426Z,44.44
2022-12-11T18:23:24.862Z,44.34
2022-12-11T18:23:38.618Z,44.34
2022-12-11T18:23:47.816Z,44.24
2022-12-11T18:23:57.001Z,44.24
2022-12-11T18:24:06.177Z,44.34
2022-12-11T18:24:15.356Z,44.34
2022-12-11T18:24:24.547Z,44.24
2022-12-11T18:24:38.361Z,44.22
2022-12-11T18:24:47.540Z,44.24
2022-12-11T18:24:56.719Z,44.22
2022-12-11T18:25:10.052Z,44.22
2022-12-11T18:25:16.211Z,44.24
2022-12-11T18:25:25.717Z,44.22
2022-12-11T18:25:34.905Z,44.22
2022-12-11T18:25:48.733Z,44.22
2022-12-11T18:25:57.955Z,44.12
2022-12-11T18:26:07.137Z,44.12
2022-12-11T18:26:16.321Z,44.12
2022-12-11T18:26:25.500Z,44.12
2022-12-11T18:26:34.679Z,44.12
2022-12-11T18:26:48.428Z,44.12
2022-12-11T18:26:57.617Z,44.02
2022-12-11T18:27:06.800Z,44.02
2022-12-11T18:27:15.970Z,44.12
2022-12-11T18:27:25.159Z,44.02
2022-12-11T18:27:38.916Z,44.02
2022-12-11T18:27:48.094Z,44.02
2022-12-11T18:27:57.274Z,44.02
2022-12-11T18:28:06.456Z,44.02
2022-12-11T18:28:15.657Z,44.02
2022-12-11T18:28:24.835Z,44.02
2022-12-11T18:28:38.584Z,43.92
2022-12-11T18:28:47.762Z,43.92
2022-12-11T18:28:56.962Z,43.92
2022-12-11T18:29:06.135Z,43.92
2022-12-11T18:29:15.317Z,43.92
2022-12-11T18:29:29.075Z,44.02
2022-12-11T18:29:38.252Z,44.02
2022-12-11T18:29:47.433Z,44.02
2022-12-11T18:29:56.608Z,44.02
2022-12-11T18:30:05.783Z,44.02
2022-12-11T18:30:14.970Z,43.92
2022-12-11T18:30:28.709Z,43.92
2022-12-11T18:30:37.901Z,43.92
2022-12-11T18:30:47.093Z,43.92
2022-12-11T18:30:56.331Z,43.92
2022-12-11T18:31:05.542Z,43.82
2022-12-11T18:31:14.762Z,43.82
2022-12-11T18:31:28.615Z,43.92
2022-12-11T18:31:42.380Z,43.92
2022-12-11T18:31:47.501Z,44.02
2022-12-11T18:31:56.760Z,44.22
2022-12-11T18:32:05.942Z,44.22
2022-12-11T18:32:15.120Z,44.12
2022-12-11T18:32:28.877Z,44.12
2022-12-11T18:32:38.067Z,44.22
2022-12-11T18:32:47.247Z,44.22
2022-12-11T18:32:56.440Z,44.22
2022-12-11T18:33:05.620Z,44.12
2022-12-11T18:33:14.779Z,44.10
2022-12-11T18:33:28.571Z,44.02
2022-12-11T18:33:37.756Z,44.02
2022-12-11T18:33:46.938Z,44.10
2022-12-11T18:33:56.116Z,44.32
2022-12-11T18:34:05.350Z,44.22
2022-12-11T18:34:14.549Z,44.10
2022-12-11T18:34:28.291Z,44.12
2022-12-11T18:34:37.470Z,44.12
2022-12-11T18:34:46.652Z,44.12
2022-12-11T18:34:55.838Z,44.00
2022-12-11T18:35:05.028Z,44.00
2022-12-11T18:35:18.854Z,44.00
2022-12-11T18:35:28.031Z,44.00
2022-12-11T18:35:37.221Z,44.10
2022-12-11T18:35:46.400Z,44.00
2022-12-11T18:35:55.613Z,43.90
2022-12-11T18:36:04.788Z,43.90
2022-12-11T18:36:18.543Z,44.00
2022-12-11T18:36:27.723Z,44.00
2022-12-11T18:36:36.936Z,43.90
2022-12-11T18:36:46.116Z,43.90
2022-12-11T18:36:55.284Z,43.90
2022-12-11T18:37:09.075Z,43.90
2022-12-11T18:37:21.132Z,43.90
2022-12-11T18:37:28.386Z,43.80
2022-12-11T18:37:37.574Z,43.90
2022-12-11T18:37:46.763Z,43.92
2022-12-11T18:37:55.942Z,43.90
2022-12-11T18:38:05.121Z,43.90
2022-12-11T18:38:18.919Z,43.92
2022-12-11T18:38:28.474Z,43.90
2022-12-11T18:38:37.661Z,43.92
2022-12-11T18:38:46.848Z,43.90
2022-12-11T18:38:56.041Z,43.82
2022-12-11T18:39:05.247Z,43.92
2022-12-11T18:39:18.994Z,43.92
2022-12-11T18:39:28.158Z,43.92
2022-12-11T18:39:37.358Z,43.92
2022-12-11T18:39:46.543Z,44.02
2022-12-11T18:39:55.715Z,44.02
2022-12-11T18:40:04.891Z,43.92
2022-12-11T18:40:18.642Z,43.92
2022-12-11T18:40:27.897Z,43.92
2022-12-11T18:40:37.076Z,43.92
2022-12-11T18:40:46.253Z,43.92
2022-12-11T18:40:55.434Z,43.82
2022-12-11T18:41:04.629Z,43.72
2022-12-11T18:41:18.407Z,43.52
2022-12-11T18:41:27.648Z,43.42
2022-12-11T18:41:36.848Z,43.32
2022-12-11T18:41:58.337Z,43.32
2022-12-11T18:42:32.464Z,43.32
2022-12-11T18:42:37.517Z,43.52
2022-12-11T18:42:42.140Z,43.52
2022-12-11T18:42:46.754Z,43.52
2022-12-11T18:42:51.375Z,43.62
2022-12-11T18:42:55.987Z,43.62
2022-12-11T18:43:00.594Z,43.62
2022-12-11T18:43:05.281Z,43.62
2022-12-11T18:43:19.031Z,43.62
2022-12-11T18:43:28.240Z,43.72
2022-12-11T18:43:37.421Z,43.72
2022-12-11T18:43:46.603Z,43.72
2022-12-11T18:43:55.781Z,43.72
2022-12-11T18:44:09.573Z,43.82
2022-12-11T18:44:14.545Z,43.82
2022-12-11T18:44:28.298Z,43.84
2022-12-11T18:44:37.508Z,43.84
2022-12-11T18:44:46.685Z,43.82
2022-12-11T18:44:55.863Z,43.84
2022-12-11T18:45:05.058Z,43.94
2022-12-11T18:45:18.818Z,43.94
2022-12-11T18:45:27.996Z,44.04
2022-12-11T18:45:37.190Z,43.94
2022-12-11T18:45:46.365Z,43.94
2022-12-11T18:45:55.536Z,43.94
2022-12-11T18:46:04.867Z,44.04
2022-12-11T18:46:18.698Z,44.04
2022-12-11T18:46:27.894Z,44.04
2022-12-11T18:46:37.132Z,44.04
2022-12-11T18:46:46.346Z,44.04
2022-12-11T18:46:55.598Z,44.04
2022-12-11T18:47:04.797Z,44.04
2022-12-11T18:47:18.549Z,44.14
2022-12-11T18:47:27.727Z,44.14
2022-12-11T18:47:36.917Z,44.14
2022-12-11T18:47:46.099Z,44.14
2022-12-11T18:47:55.289Z,44.14
2022-12-11T18:48:09.023Z,44.24
2022-12-11T18:48:18.229Z,44.24
2022-12-11T18:48:27.435Z,44.24
2022-12-11T18:48:36.638Z,44.24
2022-12-11T18:48:45.814Z,44.24
2022-12-11T18:48:55.009Z,44.24
2022-12-11T18:49:08.759Z,44.24
2022-12-11T18:49:17.932Z,44.24
2022-12-11T18:49:27.115Z,44.34
2022-12-11T18:49:36.306Z,44.24
2022-12-11T18:49:45.486Z,44.34
2022-12-11T18:49:54.664Z,44.34
2022-12-11T18:50:08.548Z,44.34
2022-12-11T18:50:17.725Z,44.34
2022-12-11T18:50:26.912Z,44.34
2022-12-11T18:50:36.107Z,44.44